עמוד ראשי
METAR-TAF:

METAR-TAF

שדות תעופה :

אדיאמן, טורקיה

קו רוחב: 37-43-54N, קו אורך: 38-28-08E, גובה: 675מטר

תצפית מזג אוויר נוכחית

הדו"ח נערך לפני 18דקות, בשעה 10:50 UTC
רוח 14קשר מכיוון דרום/דרום-מערב
טמפרטורת 40 צלסיוס
לחות 12%
לחץ 1004 hPa
ראות 10 קילומטר או יותר
מעט עננים בגובה 4000רגל

METAR: LTCP 251050Z 21014KT 9999 FEW040 40/05 Q1004

זמן: 14:08 (11:08 UTC)

תחזית

הדו"ח נערך לפני 3 שעות ו 28דקות, בשעה 07:40 UTC
תחזית בתוקף מ 25 ב 09 UTC עד 25 ב 18 UTC
רוח 2קשר עם כיוונים משתנים
ראות 10 קילומטר או יותר
ללא עננים שבסיסם נמוך מ 5000 רגל או קומולונימבוס
יעשה מ
25 ב 10 UTC עד 25 ב 12 UTC
מעט עננים בגובה 4000רגל
יעשה מ
25 ב 15 UTC עד 25 ב 17 UTC
רוח 17קשר מכיוון צפון/צפון-מערב
ראות 10 קילומטר או יותר
ללא עננים שבסיסם נמוך מ 5000 רגל או קומולונימבוס

TAF: LTCP 250740Z 2509/2518 VRB02KT CAVOK BECMG 2510/2512 FEW040 BECMG 2515/2517 34017KT CAVOK

תצפיות ותחזיות מזג אוויר לגבי יותר מ- 4,000 שדות תעופה ברחבי העולם. דוחות METAR ו- TAF.

התחנות הזמינות מסומנות בנקודות צהובות ואדומות על גבי המפה.

העבר את העכבר לנקודה הצבעונית על מנת לראות את שם התחנה.

לאחר מכן, לחץ כדי לראות את תוכן ואת תחזיות מזג האוויר.

כדי לשנות את המפה: לחץ על הכפתורים הירוקים עם הפלוס השחור כדי להתקרב; על הכפתור הירוק עם המקף כדי להתרחק; או בחיצים הירוקים למפות סמוכות.


METAR-TAF: